createdAt,value
2018-01-13T00:02:23.756Z,32.57
2018-01-13T00:04:51.279Z,33.63
2018-01-13T00:07:18.809Z,32.73
2018-01-13T00:09:46.298Z,32.70
2018-01-13T00:12:14.566Z,30.83
2018-01-13T00:14:42.846Z,34.43
2018-01-13T00:17:11.098Z,32.77
2018-01-13T00:19:38.625Z,32.73
2018-01-13T00:22:06.109Z,32.77
2018-01-13T00:24:33.629Z,32.00
2018-01-13T00:27:01.884Z,29.90
2018-01-13T00:29:29.366Z,30.10
2018-01-13T00:31:57.647Z,30.60
2018-01-13T00:34:25.904Z,38.97
2018-01-13T00:36:53.459Z,30.20
2018-01-13T00:39:21.821Z,31.77
2018-01-13T00:41:49.296Z,30.97
2018-01-13T00:44:16.778Z,29.80
2018-01-13T00:46:44.297Z,30.63
2018-01-13T00:49:11.810Z,30.73
2018-01-13T00:51:39.320Z,29.50
2018-01-13T00:54:07.625Z,29.97
2018-01-13T00:56:35.233Z,32.70
2018-01-13T00:59:03.487Z,30.43
2018-01-13T01:01:30.984Z,30.90
2018-01-13T01:03:58.518Z,32.20
2018-01-13T01:06:26.024Z,30.53
2018-01-13T01:08:53.549Z,31.53
2018-01-13T01:11:21.069Z,32.83
2018-01-13T01:13:48.627Z,32.77
2018-01-13T01:16:16.144Z,31.47
2018-01-13T01:18:43.696Z,30.93
2018-01-13T01:21:11.182Z,32.10
2018-01-13T01:23:39.484Z,31.80
2018-01-13T01:26:07.130Z,31.33
2018-01-13T01:28:35.429Z,32.70
2018-01-13T01:31:02.953Z,31.43
2018-01-13T01:33:30.439Z,32.30
2018-01-13T01:35:57.977Z,32.20
2018-01-13T01:38:25.460Z,31.03
2018-01-13T01:40:53.743Z,31.60
2018-01-13T01:43:22.001Z,29.47
2018-01-13T01:45:49.547Z,30.80
2018-01-13T01:48:25.881Z,31.33
2018-01-13T01:50:53.458Z,32.97
2018-01-13T01:53:20.972Z,33.30
2018-01-13T01:55:48.461Z,30.20
2018-01-13T01:58:15.992Z,31.90
2018-01-13T02:00:43.557Z,32.40
2018-01-13T02:03:11.101Z,29.97
2018-01-13T02:05:38.613Z,29.63
2018-01-13T02:08:06.141Z,30.47
2018-01-13T02:10:33.638Z,30.63
2018-01-13T02:13:01.182Z,30.53
2018-01-13T02:15:28.669Z,30.87
2018-01-13T02:17:56.959Z,31.17
2018-01-13T02:20:24.509Z,29.47
2018-01-13T02:22:52.757Z,29.40
2018-01-13T02:25:20.267Z,31.60
2018-01-13T02:27:47.755Z,30.70
2018-01-13T02:30:15.298Z,30.63
2018-01-13T02:32:42.789Z,28.93
2018-01-13T02:35:10.389Z,30.50
2018-01-13T02:37:37.872Z,30.70
2018-01-13T02:40:06.205Z,32.10
2018-01-13T02:42:33.722Z,30.37
2018-01-13T02:45:01.258Z,30.33
2018-01-13T02:47:28.793Z,31.90
2018-01-13T02:49:56.286Z,30.70
2018-01-13T02:52:23.823Z,30.73
2018-01-13T02:54:51.307Z,33.97
2018-01-13T02:57:18.839Z,29.63
2018-01-13T02:59:46.330Z,30.90
2018-01-13T03:02:13.810Z,33.53
2018-01-13T03:04:42.145Z,35.17
2018-01-13T03:07:10.018Z,28.80
2018-01-13T03:09:37.533Z,30.47
2018-01-13T03:12:05.816Z,30.13
2018-01-13T03:14:34.119Z,32.17
2018-01-13T03:17:01.687Z,34.17
2018-01-13T03:19:29.205Z,30.73
2018-01-13T03:21:56.727Z,32.00
2018-01-13T03:24:24.212Z,33.07
2018-01-13T03:26:51.757Z,31.30
2018-01-13T03:29:19.289Z,31.67
2018-01-13T03:31:46.823Z,30.40
2018-01-13T03:34:14.370Z,33.00
2018-01-13T03:36:41.870Z,30.80
2018-01-13T03:39:10.127Z,32.63
2018-01-13T03:41:37.653Z,37.00
2018-01-13T03:44:05.177Z,33.50
2018-01-13T03:46:33.466Z,35.17
2018-01-13T03:49:00.957Z,33.90
2018-01-13T03:51:28.765Z,34.23
2018-01-13T03:53:56.306Z,34.33
2018-01-13T03:56:23.799Z,34.70
2018-01-13T03:58:51.338Z,32.10
2018-01-13T04:01:18.865Z,32.53
2018-01-13T04:03:46.385Z,34.30
2018-01-13T04:06:13.904Z,35.13
2018-01-13T04:08:41.390Z,34.30
2018-01-13T04:11:08.876Z,34.43
2018-01-13T04:13:36.405Z,34.93
2018-01-13T04:16:03.895Z,37.37
2018-01-13T04:18:31.452Z,36.87
2018-01-13T04:20:58.977Z,39.50
2018-01-13T04:23:26.468Z,38.57
2018-01-13T04:25:53.989Z,41.80
2018-01-13T04:28:21.509Z,42.17
2018-01-13T04:30:49.030Z,39.80
2018-01-13T04:33:16.518Z,45.80
2018-01-13T04:35:44.072Z,46.07
2018-01-13T04:38:11.597Z,47.43
2018-01-13T04:40:39.858Z,50.83
2018-01-13T04:43:07.390Z,49.67
2018-01-13T04:45:34.882Z,50.10
2018-01-13T04:48:02.440Z,49.43
2018-01-13T04:50:30.047Z,52.90
2018-01-13T04:52:57.539Z,52.13
2018-01-13T04:55:25.027Z,52.47
2018-01-13T04:57:52.573Z,56.00
2018-01-13T05:00:20.107Z,58.30
2018-01-13T05:02:47.626Z,61.73
2018-01-13T05:05:15.195Z,66.70
2018-01-13T05:07:42.698Z,62.73
2018-01-13T05:10:10.958Z,62.47
2018-01-13T05:12:39.263Z,68.93
2018-01-13T05:15:06.741Z,68.47
2018-01-13T05:17:34.227Z,67.17
2018-01-13T05:20:01.850Z,65.57
2018-01-13T05:22:29.393Z,65.43
2018-01-13T05:24:57.697Z,63.87
2018-01-13T05:27:25.945Z,64.50
2018-01-13T05:29:53.469Z,65.73
2018-01-13T05:32:20.949Z,64.20
2018-01-13T05:34:48.466Z,64.37
2018-01-13T05:37:16.070Z,59.23
2018-01-13T05:39:43.562Z,60.77
2018-01-13T05:42:11.070Z,60.80
2018-01-13T05:44:38.575Z,61.00
2018-01-13T05:47:06.090Z,60.90
2018-01-13T05:49:33.602Z,62.57
2018-01-13T05:52:01.137Z,62.30
2018-01-13T05:54:29.435Z,61.50
2018-01-13T05:56:56.973Z,64.43
2018-01-13T05:59:24.450Z,58.70
2018-01-13T06:01:51.938Z,58.90
2018-01-13T06:04:19.529Z,59.77
2018-01-13T06:06:47.790Z,58.63
2018-01-13T06:09:15.359Z,59.80
2018-01-13T06:11:42.886Z,56.60
2018-01-13T06:14:10.389Z,57.90
2018-01-13T06:16:38.696Z,57.73
2018-01-13T06:19:06.189Z,56.43
2018-01-13T06:21:33.818Z,56.10
2018-01-13T06:24:01.346Z,54.93
2018-01-13T06:26:28.886Z,54.70
2018-01-13T06:28:56.398Z,56.27
2018-01-13T06:31:24.653Z,57.03
2018-01-13T06:33:52.187Z,54.73
2018-01-13T06:36:19.670Z,53.20
2018-01-13T06:38:47.187Z,53.93
2018-01-13T06:41:14.674Z,53.50
2018-01-13T06:43:42.215Z,59.80
2018-01-13T06:46:09.763Z,60.63
2018-01-13T06:48:38.558Z,60.90
2018-01-13T06:51:06.817Z,66.37
2018-01-13T06:53:34.343Z,64.30
2018-01-13T06:56:01.853Z,68.47
2018-01-13T06:58:30.110Z,69.30
2018-01-13T07:00:57.637Z,72.17
2018-01-13T07:03:25.130Z,74.73
2018-01-13T07:05:52.662Z,76.20
2018-01-13T07:08:20.155Z,80.50
2018-01-13T07:10:47.638Z,75.97
2018-01-13T07:13:15.155Z,77.33
2018-01-13T07:15:42.651Z,76.07
2018-01-13T07:18:10.200Z,81.60
2018-01-13T07:20:37.705Z,79.83
2018-01-13T07:23:06.319Z,84.07
2018-01-13T07:25:33.844Z,83.30
2018-01-13T07:28:01.377Z,83.90
2018-01-13T07:30:28.861Z,83.70
2018-01-13T07:32:56.387Z,86.67
2018-01-13T07:35:23.917Z,86.57
2018-01-13T07:37:51.486Z,87.00
2018-01-13T07:40:19.817Z,86.00
2018-01-13T07:42:47.336Z,85.70
2018-01-13T07:45:14.903Z,88.03
2018-01-13T07:47:42.412Z,82.70
2018-01-13T07:50:09.969Z,82.93
2018-01-13T07:52:37.507Z,81.97
2018-01-13T07:55:05.007Z,85.57
2018-01-13T07:57:32.487Z,80.30
2018-01-13T08:00:00.008Z,79.93
2018-01-13T08:02:27.599Z,78.83
2018-01-13T08:04:55.085Z,76.80
2018-01-13T08:07:22.591Z,76.57
2018-01-13T08:09:50.138Z,78.87
2018-01-13T08:12:17.656Z,83.30
2018-01-13T08:14:45.185Z,79.87
2018-01-13T08:17:12.701Z,80.67
2018-01-13T08:19:40.969Z,82.97
2018-01-13T08:22:08.481Z,84.67
2018-01-13T08:24:35.998Z,81.03
2018-01-13T08:27:03.503Z,80.57
2018-01-13T08:29:31.036Z,78.90
2018-01-13T08:31:59.335Z,80.53
2018-01-13T08:34:27.590Z,76.90
2018-01-13T08:36:55.127Z,77.73
2018-01-13T08:39:22.614Z,78.53
2018-01-13T08:41:50.106Z,81.30
2018-01-13T08:44:18.385Z,81.70
2018-01-13T08:46:46.643Z,78.03
2018-01-13T08:49:14.175Z,82.90
2018-01-13T08:51:41.690Z,77.73
2018-01-13T08:54:09.983Z,83.90
2018-01-13T08:56:37.542Z,81.80
2018-01-13T08:59:05.080Z,82.70
2018-01-13T09:01:48.310Z,81.10
2018-01-13T09:04:16.621Z,80.73
2018-01-13T09:06:44.121Z,80.37
2018-01-13T09:09:11.629Z,79.13
2018-01-13T09:11:39.917Z,77.30
2018-01-13T09:14:07.410Z,80.50
2018-01-13T09:16:34.897Z,79.17
2018-01-13T09:19:02.418Z,79.27
2018-01-13T09:21:29.911Z,80.70
2018-01-13T09:23:57.425Z,78.70
2018-01-13T09:26:25.680Z,77.23
2018-01-13T09:28:53.214Z,78.73
2018-01-13T09:31:20.694Z,76.97
2018-01-13T09:33:48.269Z,74.83
2018-01-13T09:36:16.590Z,74.70
2018-01-13T09:38:44.069Z,74.23
2018-01-13T09:41:11.557Z,75.27
2018-01-13T09:43:39.070Z,75.87
2018-01-13T09:46:07.349Z,78.40
2018-01-13T09:48:35.653Z,71.80
2018-01-13T09:51:03.145Z,73.00
2018-01-13T09:53:30.634Z,72.07
2018-01-13T09:55:58.163Z,71.90
2018-01-13T09:58:25.662Z,73.30
2018-01-13T10:00:53.155Z,74.07
2018-01-13T10:03:20.683Z,76.50
2018-01-13T10:05:48.306Z,75.47
2018-01-13T10:08:15.798Z,72.50
2018-01-13T10:10:43.317Z,75.63
2018-01-13T10:13:10.842Z,89.03
2018-01-13T10:15:39.113Z,75.07
2018-01-13T10:18:06.637Z,74.73
2018-01-13T10:20:34.265Z,73.40
2018-01-13T10:23:02.511Z,69.97
2018-01-13T10:25:29.989Z,73.20
2018-01-13T10:27:57.510Z,74.77
2018-01-13T10:30:24.993Z,70.77
2018-01-13T10:32:52.485Z,72.97
2018-01-13T10:35:20.026Z,78.27
2018-01-13T10:37:47.533Z,69.27
2018-01-13T10:40:15.829Z,70.70
2018-01-13T10:42:44.096Z,70.50
2018-01-13T10:45:12.341Z,90.47
2018-01-13T10:47:39.873Z,68.80
2018-01-13T10:50:07.367Z,69.50
2018-01-13T10:52:34.892Z,76.90
2018-01-13T10:55:02.386Z,86.90
2018-01-13T10:57:29.910Z,73.00
2018-01-13T10:59:57.429Z,70.03
2018-01-13T11:02:24.919Z,73.80
2018-01-13T11:04:53.190Z,70.67
2018-01-13T11:07:21.473Z,72.10
2018-01-13T11:09:49.724Z,71.80
2018-01-13T11:12:17.227Z,69.13
2018-01-13T11:14:44.762Z,78.27
2018-01-13T11:17:12.251Z,76.70
2018-01-13T11:19:40.530Z,75.07
2018-01-13T11:22:08.097Z,73.27
2018-01-13T11:24:36.389Z,68.40
2018-01-13T11:27:03.906Z,79.77
2018-01-13T11:29:32.453Z,77.27
2018-01-13T11:31:59.981Z,76.37
2018-01-13T11:34:28.235Z,75.73
2018-01-13T11:36:55.757Z,75.90
2018-01-13T11:39:23.246Z,78.17
2018-01-13T11:41:50.768Z,75.97
2018-01-13T11:44:18.269Z,75.03
2018-01-13T11:46:45.798Z,79.10
2018-01-13T11:49:13.286Z,77.27
2018-01-13T11:51:40.814Z,80.00
2018-01-13T11:54:09.064Z,82.50
2018-01-13T11:56:36.573Z,80.87
2018-01-13T11:59:04.092Z,79.63
2018-01-13T12:01:31.579Z,81.53
2018-01-13T12:03:59.866Z,80.17
2018-01-13T12:06:28.128Z,77.27
2018-01-13T12:08:55.663Z,83.40
2018-01-13T12:11:23.182Z,87.10
2018-01-13T12:13:50.681Z,83.60
2018-01-13T12:16:18.199Z,79.90
2018-01-13T12:18:46.442Z,89.80
2018-01-13T12:21:13.946Z,83.57
2018-01-13T12:23:42.235Z,84.47
2018-01-13T12:26:09.746Z,83.57
2018-01-13T12:28:37.266Z,80.70
2018-01-13T12:31:04.793Z,83.50
2018-01-13T12:33:32.352Z,80.40
2018-01-13T12:35:59.879Z,79.10
2018-01-13T12:38:27.398Z,81.00
2018-01-13T12:40:55.711Z,85.60
2018-01-13T12:43:23.196Z,85.97
2018-01-13T12:45:50.713Z,82.23
2018-01-13T12:48:18.973Z,83.00
2018-01-13T12:50:46.498Z,79.80
2018-01-13T12:53:14.017Z,83.13
2018-01-13T12:55:42.312Z,83.67
2018-01-13T12:58:09.801Z,84.40
2018-01-13T13:00:37.313Z,89.10
2018-01-13T13:03:05.599Z,81.27
2018-01-13T13:05:33.885Z,82.10
2018-01-13T13:08:02.137Z,83.80
2018-01-13T13:10:29.661Z,87.40
2018-01-13T13:12:57.141Z,94.20
2018-01-13T13:15:24.673Z,81.27
2018-01-13T13:17:52.189Z,79.57
2018-01-13T13:20:19.709Z,84.80
2018-01-13T13:22:47.242Z,80.90
2018-01-13T13:25:15.545Z,90.10
2018-01-13T13:27:43.040Z,98.53
2018-01-13T13:30:10.568Z,86.17
2018-01-13T13:32:38.102Z,81.03
2018-01-13T13:35:05.606Z,83.17
2018-01-13T13:37:33.107Z,101.23
2018-01-13T13:40:00.633Z,80.93
2018-01-13T13:42:28.130Z,88.03
2018-01-13T13:44:55.681Z,85.43
2018-01-13T13:47:23.168Z,89.50
2018-01-13T13:49:50.710Z,88.40
2018-01-13T13:52:18.205Z,91.10
2018-01-13T13:54:45.736Z,92.23
2018-01-13T13:57:13.281Z,83.00
2018-01-13T13:59:40.766Z,87.40
2018-01-13T14:02:08.273Z,84.60
2018-01-13T14:04:36.543Z,88.80
2018-01-13T14:07:04.839Z,92.90
2018-01-13T14:09:33.136Z,139.50
2018-01-13T14:12:00.630Z,92.90
2018-01-13T14:14:28.154Z,96.93
2018-01-13T14:16:55.650Z,91.33
2018-01-13T14:19:23.186Z,100.57
2018-01-13T14:21:50.725Z,91.33
2018-01-13T14:24:18.212Z,89.87
2018-01-13T14:26:45.723Z,89.83
2018-01-13T14:29:13.208Z,93.10
2018-01-13T14:31:40.732Z,89.93
2018-01-13T14:34:08.218Z,98.63
2018-01-13T14:36:35.741Z,89.57
2018-01-13T14:39:03.286Z,93.60
2018-01-13T14:41:31.555Z,226.57
2018-01-13T14:43:59.809Z,95.70
2018-01-13T14:46:28.319Z,88.03
2018-01-13T14:48:55.846Z,98.83
2018-01-13T14:51:23.447Z,87.00
2018-01-13T14:53:50.938Z,86.47
2018-01-13T14:56:18.429Z,91.17
2018-01-13T14:58:45.922Z,92.70
2018-01-13T15:01:13.507Z,86.80
2018-01-13T15:03:41.766Z,98.13
2018-01-13T15:06:10.033Z,86.90
2018-01-13T15:08:37.565Z,91.40
2018-01-13T15:11:05.054Z,85.27
2018-01-13T15:13:32.575Z,99.23
2018-01-13T15:16:00.114Z,85.40
2018-01-13T15:18:28.369Z,90.17
2018-01-13T15:20:55.862Z,87.90
2018-01-13T15:23:24.149Z,92.30
2018-01-13T15:25:52.421Z,94.97
2018-01-13T15:28:20.689Z,96.57
2018-01-13T15:30:48.233Z,96.30
2018-01-13T15:33:15.713Z,89.67
2018-01-13T15:35:43.245Z,89.80
2018-01-13T15:38:10.729Z,92.60
2018-01-13T15:40:38.254Z,80.27
2018-01-13T15:43:05.731Z,85.00
2018-01-13T15:45:33.262Z,84.57
2018-01-13T15:48:00.751Z,83.47
2018-01-13T15:50:28.251Z,80.50
2018-01-13T15:52:55.789Z,82.97
2018-01-13T15:55:23.280Z,84.80
2018-01-13T15:57:50.817Z,81.83
2018-01-13T16:00:18.321Z,83.50
2018-01-13T16:02:46.578Z,82.40
2018-01-13T16:05:14.093Z,82.70
2018-01-13T16:07:41.573Z,82.10
2018-01-13T16:10:09.107Z,80.20
2018-01-13T16:12:36.630Z,83.33
2018-01-13T16:15:04.149Z,84.93
2018-01-13T16:17:31.689Z,79.33
2018-01-13T16:19:59.951Z,78.90
2018-01-13T16:22:27.478Z,103.03
2018-01-13T16:24:54.974Z,83.60
2018-01-13T16:27:22.515Z,83.70
2018-01-13T16:29:50.040Z,84.27
2018-01-13T16:32:17.529Z,73.93
2018-01-13T16:34:45.057Z,138.40
2018-01-13T16:37:13.338Z,77.67
2018-01-13T16:39:41.642Z,79.60
2018-01-13T16:42:09.133Z,81.10
2018-01-13T16:44:36.657Z,80.27
2018-01-13T16:47:04.152Z,74.30
2018-01-13T16:49:31.674Z,71.80
2018-01-13T16:51:59.164Z,73.27
2018-01-13T16:54:26.654Z,76.87
2018-01-13T16:56:54.189Z,79.17
2018-01-13T16:59:21.669Z,85.60
2018-01-13T17:01:49.166Z,77.50
2018-01-13T17:04:16.693Z,96.00
2018-01-13T17:06:44.176Z,79.23
2018-01-13T17:09:11.693Z,88.17
2018-01-13T17:11:39.174Z,82.40
2018-01-13T17:14:06.692Z,83.73
2018-01-13T17:16:34.985Z,81.20
2018-01-13T17:19:03.258Z,81.20
2018-01-13T17:21:31.506Z,76.57
2018-01-13T17:23:59.038Z,80.00
2018-01-13T17:26:26.546Z,78.07
2018-01-13T17:28:54.228Z,77.30
2018-01-13T17:31:22.478Z,78.50
2018-01-13T17:33:49.969Z,75.57
2018-01-13T17:36:18.260Z,74.70
2018-01-13T17:38:46.532Z,73.30
2018-01-13T17:41:14.802Z,74.97
2018-01-13T17:43:42.339Z,78.63
2018-01-13T17:46:09.826Z,90.33
2018-01-13T17:48:37.349Z,68.00
2018-01-13T17:51:04.863Z,67.50
2018-01-13T17:53:33.118Z,72.53
2018-01-13T17:56:00.631Z,69.93
2018-01-13T17:58:28.156Z,89.57
2018-01-13T18:00:55.683Z,77.30
2018-01-13T18:03:24.046Z,72.77
2018-01-13T18:05:51.574Z,71.97
2018-01-13T18:08:19.063Z,80.03
2018-01-13T18:10:46.555Z,77.50
2018-01-13T18:13:14.089Z,69.80
2018-01-13T18:15:41.578Z,69.20
2018-01-13T18:18:09.125Z,74.60
2018-01-13T18:20:36.618Z,98.40
2018-01-13T18:23:04.152Z,68.97
2018-01-13T18:25:31.643Z,76.17
2018-01-13T18:27:59.133Z,74.47
2018-01-13T18:30:26.664Z,73.60
2018-01-13T18:32:54.189Z,64.70
2018-01-13T18:35:21.677Z,71.60
2018-01-13T18:37:49.210Z,74.07
2018-01-13T18:40:17.547Z,78.97
2018-01-13T18:42:45.034Z,67.80
2018-01-13T18:45:12.560Z,67.03
2018-01-13T18:47:40.069Z,69.57
2018-01-13T18:50:08.323Z,84.60
2018-01-13T18:52:35.839Z,88.03
2018-01-13T18:55:03.333Z,72.50
2018-01-13T18:57:30.844Z,74.67
2018-01-13T18:59:59.127Z,73.73
2018-01-13T19:02:27.383Z,70.40
2018-01-13T19:04:54.910Z,74.67
2018-01-13T19:07:22.409Z,78.10
2018-01-13T19:09:49.949Z,75.90
2018-01-13T19:12:17.498Z,75.60
2018-01-13T19:14:44.986Z,75.43
2018-01-13T19:17:12.542Z,70.97
2018-01-13T19:19:40.034Z,73.47
2018-01-13T19:22:07.532Z,73.03
2018-01-13T19:24:35.041Z,71.70
2018-01-13T19:27:02.566Z,66.90
2018-01-13T19:29:30.047Z,67.37
2018-01-13T19:31:57.603Z,65.27
2018-01-13T19:34:25.087Z,64.30
2018-01-13T19:36:52.573Z,71.60
2018-01-13T19:39:20.120Z,84.87
2018-01-13T19:41:47.629Z,67.80
2018-01-13T19:44:15.909Z,70.03
2018-01-13T19:46:44.191Z,74.37
2018-01-13T19:49:12.454Z,80.80
2018-01-13T19:51:39.978Z,79.43
2018-01-13T19:54:07.517Z,75.43
2018-01-13T19:56:35.019Z,76.00
2018-01-13T19:59:02.497Z,73.93
2018-01-13T20:01:30.041Z,74.50
2018-01-13T20:03:57.530Z,74.60
2018-01-13T20:06:25.032Z,71.37
2018-01-13T20:08:52.571Z,69.00
2018-01-13T20:11:20.822Z,67.60
2018-01-13T20:13:48.309Z,67.50
2018-01-13T20:16:16.619Z,66.20
2018-01-13T20:18:44.114Z,64.90
2018-01-13T20:21:11.653Z,64.20
2018-01-13T20:23:39.173Z,59.67
2018-01-13T20:26:06.664Z,62.37
2018-01-13T20:28:34.206Z,57.90
2018-01-13T20:31:02.470Z,62.40
2018-01-13T20:33:29.956Z,64.70
2018-01-13T20:35:58.252Z,65.00
2018-01-13T20:38:25.778Z,60.07
2018-01-13T20:40:53.273Z,62.93
2018-01-13T20:43:21.553Z,63.57
2018-01-13T20:45:49.078Z,72.77
2018-01-13T20:48:16.581Z,73.70
2018-01-13T20:50:44.121Z,74.40
2018-01-13T20:53:11.601Z,83.60
2018-01-13T20:55:39.895Z,86.13
2018-01-13T20:58:07.374Z,80.80
2018-01-13T21:00:34.904Z,82.47
2018-01-13T21:03:03.155Z,81.70
2018-01-13T21:05:30.674Z,91.03
2018-01-13T21:07:58.213Z,85.07
2018-01-13T21:10:26.501Z,84.37
2018-01-13T21:12:54.823Z,80.43
2018-01-13T21:15:22.327Z,84.17
2018-01-13T21:17:49.854Z,84.03
2018-01-13T21:20:17.342Z,93.00
2018-01-13T21:22:44.831Z,94.47
2018-01-13T21:25:13.110Z,82.87
2018-01-13T21:27:41.370Z,93.80
2018-01-13T21:30:08.902Z,89.17
2018-01-13T21:32:36.401Z,90.63
2018-01-13T21:35:03.896Z,86.83
2018-01-13T21:37:31.423Z,90.90
2018-01-13T21:39:58.908Z,81.73
2018-01-13T21:42:27.164Z,76.57
2018-01-13T21:44:54.713Z,80.57
2018-01-13T21:47:22.191Z,71.20
2018-01-13T21:49:49.674Z,66.30
2018-01-13T21:52:17.971Z,65.37
2018-01-13T21:54:45.488Z,66.37
2018-01-13T21:57:12.994Z,85.37
2018-01-13T21:59:40.510Z,88.37
2018-01-13T22:02:07.995Z,88.10
2018-01-13T22:04:35.511Z,72.13
2018-01-13T22:07:03.026Z,65.27
2018-01-13T22:09:31.306Z,72.37
2018-01-13T22:11:59.549Z,80.20
2018-01-13T22:14:27.085Z,68.53
2018-01-13T22:16:54.580Z,70.33
2018-01-13T22:19:22.069Z,71.17
2018-01-13T22:21:49.582Z,70.43
2018-01-13T22:24:17.105Z,73.97
2018-01-13T22:26:45.422Z,74.53
2018-01-13T22:29:12.906Z,67.13
2018-01-13T22:31:40.394Z,71.20
2018-01-13T22:34:07.913Z,71.40
2018-01-13T22:36:35.390Z,75.07
2018-01-13T22:39:02.914Z,71.80
2018-01-13T22:41:31.165Z,73.10
2018-01-13T22:43:58.647Z,69.67
2018-01-13T22:46:27.675Z,70.53
2018-01-13T22:48:55.198Z,64.90
2018-01-13T22:51:22.734Z,65.40
2018-01-13T22:53:50.252Z,61.70
2018-01-13T22:56:17.770Z,64.60
2018-01-13T22:58:45.283Z,73.33
2018-01-13T23:01:12.779Z,73.37
2018-01-13T23:03:40.297Z,70.73
2018-01-13T23:06:08.546Z,92.53
2018-01-13T23:08:36.071Z,98.23
2018-01-13T23:11:03.558Z,79.30
2018-01-13T23:13:31.081Z,83.97
2018-01-13T23:15:58.605Z,70.57
2018-01-13T23:18:26.090Z,75.30
2018-01-13T23:20:54.390Z,74.97
2018-01-13T23:23:21.913Z,71.17
2018-01-13T23:25:49.410Z,74.20
2018-01-13T23:28:16.957Z,80.70
2018-01-13T23:30:45.210Z,80.10
2018-01-13T23:33:12.702Z,94.50
2018-01-13T23:35:40.995Z,82.70
2018-01-13T23:38:08.486Z,77.70
2018-01-13T23:40:36.002Z,80.37
2018-01-13T23:43:04.259Z,75.67
2018-01-13T23:45:31.791Z,72.77
2018-01-13T23:47:59.310Z,79.20
2018-01-13T23:50:27.600Z,80.70
2018-01-13T23:52:55.850Z,73.67
2018-01-13T23:55:23.361Z,81.87
2018-01-13T23:57:50.882Z,74.40
